createdAt,value
2022-12-12T00:00:09.334Z,5.25
2022-12-12T00:01:23.262Z,5.26
2022-12-12T00:02:25.480Z,5.24
2022-12-12T00:03:27.876Z,5.26
2022-12-12T00:04:30.107Z,5.26
2022-12-12T00:05:32.234Z,5.26
2022-12-12T00:06:34.395Z,5.26
2022-12-12T00:07:36.613Z,5.26
2022-12-12T00:08:38.949Z,5.27
2022-12-12T00:09:41.107Z,5.27
2022-12-12T00:10:43.348Z,5.26
2022-12-12T00:11:45.524Z,5.26
2022-12-12T00:12:47.771Z,5.28
2022-12-12T00:13:50.077Z,5.29
2022-12-12T00:14:52.199Z,5.26
2022-12-12T00:15:54.334Z,5.29
2022-12-12T00:16:56.459Z,5.27
2022-12-12T00:17:58.605Z,5.28
2022-12-12T00:19:00.763Z,5.28
2022-12-12T00:20:03.942Z,5.29
2022-12-12T00:21:11.122Z,5.27
2022-12-12T00:22:13.270Z,5.29
2022-12-12T00:23:15.427Z,5.29
2022-12-12T00:24:17.593Z,5.28
2022-12-12T00:25:19.792Z,5.29
2022-12-12T00:26:25.714Z,5.29
2022-12-12T00:27:27.866Z,5.29
2022-12-12T00:28:30.165Z,5.29
2022-12-12T00:29:32.316Z,5.29
2022-12-12T00:30:34.425Z,5.29
2022-12-12T00:31:36.705Z,5.29
2022-12-12T00:32:38.983Z,5.28
2022-12-12T00:33:41.279Z,5.29
2022-12-12T00:34:43.432Z,5.30
2022-12-12T00:35:48.850Z,5.28
2022-12-12T00:36:51.621Z,5.29
2022-12-12T00:37:54.116Z,5.28
2022-12-12T00:38:57.272Z,5.30
2022-12-12T00:39:59.618Z,5.29
2022-12-12T00:41:02.226Z,5.29
2022-12-12T00:42:04.529Z,5.31
2022-12-12T00:43:06.779Z,5.30
2022-12-12T00:44:08.953Z,5.29
2022-12-12T00:45:11.685Z,5.29
2022-12-12T00:46:16.739Z,5.31
2022-12-12T00:47:18.942Z,5.30
2022-12-12T00:48:21.728Z,5.29
2022-12-12T00:49:23.849Z,5.29
2022-12-12T00:50:25.955Z,5.28
2022-12-12T00:51:29.871Z,5.28
2022-12-12T00:52:32.020Z,5.27
2022-12-12T00:53:34.461Z,5.28
2022-12-12T00:54:36.598Z,5.28
2022-12-12T00:55:39.032Z,5.27
2022-12-12T00:56:41.604Z,5.27
2022-12-12T00:57:43.716Z,5.28
2022-12-12T00:58:45.913Z,5.30
2022-12-12T00:59:48.095Z,5.29
2022-12-12T01:00:50.353Z,5.27
2022-12-12T01:01:52.556Z,5.27
2022-12-12T01:02:57.808Z,5.26
2022-12-12T01:04:00.746Z,5.26
2022-12-12T01:05:02.929Z,5.28
2022-12-12T01:06:06.168Z,5.27
2022-12-12T01:07:08.923Z,5.24
2022-12-12T01:08:11.251Z,5.27
2022-12-12T01:09:13.430Z,5.30
2022-12-12T01:10:15.855Z,5.28
2022-12-12T01:11:19.055Z,5.29
2022-12-12T01:12:21.214Z,5.26
2022-12-12T01:13:23.419Z,5.27
2022-12-12T01:14:25.667Z,5.27
2022-12-12T01:15:27.920Z,5.27
2022-12-12T01:16:30.597Z,5.25
2022-12-12T01:17:37.630Z,5.26
2022-12-12T01:18:40.893Z,5.26
2022-12-12T01:19:43.140Z,5.24
2022-12-12T01:20:45.663Z,5.24
2022-12-12T01:21:47.817Z,5.24
2022-12-12T01:22:50.222Z,5.23
2022-12-12T01:23:52.384Z,5.23
2022-12-12T01:24:56.912Z,5.22
2022-12-12T01:26:08.760Z,5.23
2022-12-12T01:27:10.920Z,5.22
2022-12-12T01:28:13.165Z,5.20
2022-12-12T01:29:15.626Z,5.19
2022-12-12T01:30:20.301Z,5.19
2022-12-12T01:31:22.540Z,5.17
2022-12-12T01:32:24.689Z,5.15
2022-12-12T01:33:27.335Z,5.14
2022-12-12T01:34:29.733Z,5.14
2022-12-12T01:35:33.274Z,5.13
2022-12-12T01:36:35.499Z,5.11
2022-12-12T01:37:39.792Z,5.10
2022-12-12T01:38:42.927Z,5.09
2022-12-12T01:39:45.191Z,5.07
2022-12-12T01:40:47.384Z,5.07
2022-12-12T01:41:49.523Z,5.08
2022-12-12T01:42:52.179Z,5.05
2022-12-12T01:43:54.537Z,5.03
2022-12-12T01:44:57.217Z,5.01
2022-12-12T01:46:19.396Z,5.01
2022-12-12T01:47:23.161Z,4.99
2022-12-12T01:48:33.873Z,4.97
2022-12-12T01:49:36.826Z,4.97
2022-12-12T01:50:40.861Z,4.95
2022-12-12T01:51:44.552Z,4.92
2022-12-12T01:52:50.388Z,4.92
2022-12-12T01:53:57.993Z,4.89
2022-12-12T01:55:05.564Z,4.88
2022-12-12T01:56:13.450Z,4.86
2022-12-12T01:57:33.017Z,4.84
2022-12-12T01:58:35.410Z,4.81
2022-12-12T01:59:39.938Z,4.79
2022-12-12T02:00:42.633Z,4.77
2022-12-12T02:01:45.405Z,4.77
2022-12-12T02:02:48.157Z,4.75
2022-12-12T02:03:50.789Z,4.74
2022-12-12T02:04:53.142Z,4.71
2022-12-12T02:06:03.279Z,4.70
2022-12-12T02:07:05.715Z,4.69
2022-12-12T02:08:08.726Z,4.68
2022-12-12T02:09:14.089Z,4.67
2022-12-12T02:10:16.360Z,4.68
2022-12-12T02:11:18.548Z,4.67
2022-12-12T02:12:20.691Z,4.67
2022-12-12T02:13:29.539Z,4.68
2022-12-12T02:14:40.618Z,4.66
2022-12-12T02:15:54.895Z,4.67
2022-12-12T02:17:15.394Z,4.66
2022-12-12T02:18:52.342Z,4.66
2022-12-12T02:20:28.286Z,4.65
2022-12-12T02:22:02.461Z,4.63
2022-12-12T02:23:30.532Z,4.62
2022-12-12T02:25:00.731Z,4.62
2022-12-12T02:26:25.497Z,4.60
2022-12-12T02:27:43.383Z,4.62
2022-12-12T02:29:36.120Z,4.59
2022-12-12T02:31:04.672Z,4.58
2022-12-12T02:32:48.882Z,4.57
2022-12-12T02:34:21.683Z,4.55
2022-12-12T02:35:48.359Z,4.53
2022-12-12T02:37:00.190Z,4.53
2022-12-12T02:38:15.352Z,4.52
2022-12-12T02:39:35.479Z,4.53
2022-12-12T02:40:59.811Z,4.52
2022-12-12T02:42:21.328Z,4.50
2022-12-12T02:43:57.811Z,4.50
2022-12-12T02:45:14.092Z,4.49
2022-12-12T02:46:47.676Z,4.48
2022-12-12T02:48:01.188Z,4.47
2022-12-12T02:49:13.734Z,4.46
2022-12-12T02:50:24.452Z,4.47
2022-12-12T02:51:28.128Z,4.46
2022-12-12T02:52:30.950Z,4.45
2022-12-12T02:53:33.082Z,4.45
2022-12-12T02:54:35.547Z,4.44
2022-12-12T02:55:37.817Z,4.42
2022-12-12T02:56:47.834Z,4.45
2022-12-12T02:57:51.958Z,4.44
2022-12-12T02:58:54.165Z,4.43
2022-12-12T03:00:08.287Z,4.45
2022-12-12T03:01:23.859Z,4.44
2022-12-12T03:02:53.748Z,4.44
2022-12-12T03:04:36.115Z,4.44
2022-12-12T03:06:40.656Z,4.43
2022-12-12T03:07:58.691Z,4.41
2022-12-12T03:09:06.736Z,4.39
2022-12-12T03:10:36.526Z,4.40
2022-12-12T03:11:47.567Z,4.38
2022-12-12T03:13:01.000Z,4.39
2022-12-12T03:14:13.197Z,4.39
2022-12-12T03:15:23.898Z,4.36
2022-12-12T03:16:44.149Z,4.38
2022-12-12T03:18:06.077Z,4.36
2022-12-12T03:19:14.108Z,4.38
2022-12-12T03:20:32.699Z,4.38
2022-12-12T03:21:47.003Z,4.35
2022-12-12T03:23:05.025Z,4.37
2022-12-12T03:24:20.290Z,4.37
2022-12-12T03:25:51.303Z,4.38
2022-12-12T03:27:01.645Z,4.38
2022-12-12T03:28:12.700Z,4.38
2022-12-12T03:29:22.906Z,4.36
2022-12-12T03:30:26.273Z,4.35
2022-12-12T03:31:32.066Z,4.36
2022-12-12T03:32:53.795Z,4.37
2022-12-12T03:34:02.513Z,4.37
2022-12-12T03:35:31.917Z,4.35
2022-12-12T03:36:57.417Z,4.36
2022-12-12T03:38:05.866Z,4.34
2022-12-12T03:39:15.082Z,4.36
2022-12-12T03:40:42.798Z,4.35
2022-12-12T03:41:54.884Z,4.34
2022-12-12T03:43:11.307Z,4.33
2022-12-12T03:44:25.303Z,4.34
2022-12-12T03:45:46.436Z,4.33
2022-12-12T03:46:57.837Z,4.31
2022-12-12T03:48:08.308Z,4.33
2022-12-12T03:49:20.103Z,4.32
2022-12-12T03:50:27.189Z,4.31
2022-12-12T03:51:38.207Z,4.32
2022-12-12T03:53:07.240Z,4.33
2022-12-12T03:54:18.999Z,4.32
2022-12-12T03:55:28.696Z,4.31
2022-12-12T03:56:55.808Z,4.31
2022-12-12T03:58:08.234Z,4.32
2022-12-12T03:59:22.787Z,4.29
2022-12-12T04:00:32.102Z,4.30
2022-12-12T04:01:58.107Z,4.30
2022-12-12T04:03:24.917Z,4.31
2022-12-12T04:04:40.973Z,4.29
2022-12-12T04:06:15.789Z,4.30
2022-12-12T04:07:28.338Z,4.29
2022-12-12T04:08:30.967Z,4.28
2022-12-12T04:09:51.728Z,4.25
2022-12-12T04:11:19.460Z,4.28
2022-12-12T04:12:58.927Z,4.29
2022-12-12T04:14:42.498Z,4.29
2022-12-12T04:15:57.814Z,4.28
2022-12-12T04:17:04.159Z,4.27
2022-12-12T04:18:24.775Z,4.28
2022-12-12T04:20:04.825Z,4.29
2022-12-12T04:21:47.726Z,4.28
2022-12-12T04:23:17.274Z,4.27
2022-12-12T04:24:29.101Z,4.27
2022-12-12T04:26:11.442Z,4.28
2022-12-12T04:27:22.366Z,4.27
2022-12-12T04:28:27.576Z,4.30
2022-12-12T04:29:48.231Z,4.29
2022-12-12T04:30:50.480Z,4.29
2022-12-12T04:32:04.026Z,4.30
2022-12-12T04:33:14.498Z,4.31
2022-12-12T04:34:30.574Z,4.31
2022-12-12T04:35:43.490Z,4.32
2022-12-12T04:36:49.188Z,4.32
2022-12-12T04:38:21.689Z,4.32
2022-12-12T04:39:25.353Z,4.31
2022-12-12T04:40:40.503Z,4.34
2022-12-12T04:41:46.228Z,4.32
2022-12-12T04:42:56.596Z,4.33
2022-12-12T04:44:00.752Z,4.33
2022-12-12T04:45:13.980Z,4.33
2022-12-12T04:46:21.431Z,4.34
2022-12-12T04:47:26.376Z,4.33
2022-12-12T04:48:42.919Z,4.34
2022-12-12T04:49:48.713Z,4.35
2022-12-12T04:50:53.314Z,4.35
2022-12-12T04:52:23.747Z,4.34
2022-12-12T04:53:35.773Z,4.34
2022-12-12T04:54:56.614Z,4.31
2022-12-12T04:56:01.202Z,4.31
2022-12-12T04:57:06.989Z,4.31
2022-12-12T04:58:11.084Z,4.31
2022-12-12T04:59:13.404Z,4.28
2022-12-12T05:00:16.230Z,4.29
2022-12-12T05:01:26.367Z,4.28
2022-12-12T05:03:04.648Z,4.29
2022-12-12T05:04:37.070Z,4.27
2022-12-12T05:05:58.126Z,4.27
2022-12-12T05:07:14.065Z,4.26
2022-12-12T05:08:25.751Z,4.27
2022-12-12T05:09:28.310Z,4.25
2022-12-12T05:10:31.071Z,4.26
2022-12-12T05:11:34.602Z,4.26
2022-12-12T05:12:48.287Z,4.26
2022-12-12T05:13:50.914Z,4.27
2022-12-12T05:14:53.154Z,4.28
2022-12-12T05:15:58.036Z,4.28
2022-12-12T05:17:07.252Z,4.28
2022-12-12T05:18:11.139Z,4.27
2022-12-12T05:19:13.564Z,4.28
2022-12-12T05:20:16.580Z,4.30
2022-12-12T05:21:19.188Z,4.28
2022-12-12T05:22:21.376Z,4.28
2022-12-12T05:23:23.557Z,4.28
2022-12-12T05:24:30.682Z,4.29
2022-12-12T05:25:33.245Z,4.29
2022-12-12T05:26:36.758Z,4.31
2022-12-12T05:27:39.094Z,4.29
2022-12-12T05:28:41.332Z,4.30
2022-12-12T05:29:43.506Z,4.30
2022-12-12T05:30:45.759Z,4.30
2022-12-12T05:31:47.905Z,4.29
2022-12-12T05:32:50.473Z,4.30
2022-12-12T05:33:52.711Z,4.30
2022-12-12T05:34:54.873Z,4.29
2022-12-12T05:35:57.022Z,4.27
2022-12-12T05:37:00.740Z,4.29
2022-12-12T05:38:03.110Z,4.28
2022-12-12T05:39:05.252Z,4.26
2022-12-12T05:40:08.869Z,4.27
2022-12-12T05:41:11.566Z,4.26
2022-12-12T05:42:13.763Z,4.26
2022-12-12T05:43:15.919Z,4.25
2022-12-12T05:44:18.074Z,4.25
2022-12-12T05:45:23.128Z,4.27
2022-12-12T05:46:25.499Z,4.27
2022-12-12T05:47:27.738Z,4.26
2022-12-12T05:48:29.918Z,4.26
2022-12-12T05:49:32.071Z,4.26
2022-12-12T05:50:34.209Z,4.26
2022-12-12T05:51:37.111Z,4.27
2022-12-12T05:52:39.257Z,4.27
2022-12-12T05:53:43.259Z,4.26
2022-12-12T05:54:45.574Z,4.25
2022-12-12T05:55:53.788Z,4.26
2022-12-12T05:56:55.954Z,4.28
2022-12-12T05:57:58.582Z,4.27
2022-12-12T05:59:00.793Z,4.26
2022-12-12T06:00:04.867Z,4.25
2022-12-12T06:01:07.538Z,4.25
2022-12-12T06:02:09.765Z,4.24
2022-12-12T06:03:12.141Z,4.25
2022-12-12T06:04:14.405Z,4.24
2022-12-12T06:05:16.634Z,4.25
2022-12-12T06:06:18.907Z,4.24
2022-12-12T06:07:21.002Z,4.25
2022-12-12T06:08:25.162Z,4.24
2022-12-12T06:09:27.834Z,4.23
2022-12-12T06:10:30.454Z,4.24
2022-12-12T06:11:32.604Z,4.23
2022-12-12T06:12:34.751Z,4.23
2022-12-12T06:13:37.520Z,4.24
2022-12-12T06:14:39.670Z,4.24
2022-12-12T06:15:42.452Z,4.24
2022-12-12T06:16:44.579Z,4.23
2022-12-12T06:17:46.699Z,4.24
2022-12-12T06:18:53.907Z,4.24
2022-12-12T06:19:56.071Z,4.24
2022-12-12T06:21:09.710Z,4.25
2022-12-12T06:22:11.899Z,4.25
2022-12-12T06:23:14.174Z,4.23
2022-12-12T06:24:16.505Z,4.24
2022-12-12T06:25:18.705Z,4.24
2022-12-12T06:26:21.850Z,4.23
2022-12-12T06:27:23.945Z,4.22
2022-12-12T06:28:26.170Z,4.19
2022-12-12T06:29:28.329Z,4.20
2022-12-12T06:30:30.497Z,4.19
2022-12-12T06:31:33.845Z,4.20
2022-12-12T06:32:36.067Z,4.18
2022-12-12T06:33:38.971Z,4.19
2022-12-12T06:34:41.214Z,4.21
2022-12-12T06:35:43.396Z,4.21
2022-12-12T06:36:45.587Z,4.21
2022-12-12T06:37:48.488Z,4.19
2022-12-12T06:39:01.164Z,4.22
2022-12-12T06:40:04.125Z,4.20
2022-12-12T06:41:14.332Z,4.21
2022-12-12T06:42:16.484Z,4.20
2022-12-12T06:43:18.668Z,4.21
2022-12-12T06:44:20.843Z,4.20
2022-12-12T06:45:23.014Z,4.21
2022-12-12T06:46:27.359Z,4.20
2022-12-12T06:47:29.598Z,4.21
2022-12-12T06:48:33.412Z,4.21
2022-12-12T06:49:35.778Z,4.22
2022-12-12T06:50:44.968Z,4.21
2022-12-12T06:51:48.683Z,4.23
2022-12-12T06:52:50.818Z,4.23
2022-12-12T06:53:53.206Z,4.23
2022-12-12T06:54:55.508Z,4.23
2022-12-12T06:55:57.667Z,4.23
2022-12-12T06:57:00.101Z,4.24
2022-12-12T06:58:02.384Z,4.24
2022-12-12T06:59:05.077Z,4.23
2022-12-12T07:00:07.980Z,4.25
2022-12-12T07:01:13.313Z,4.25
2022-12-12T07:02:15.841Z,4.25
2022-12-12T07:03:18.222Z,4.26
2022-12-12T07:04:20.419Z,4.24
2022-12-12T07:05:22.633Z,4.25
2022-12-12T07:06:25.350Z,4.26
2022-12-12T07:07:27.503Z,4.26
2022-12-12T07:08:29.683Z,4.27
2022-12-12T07:09:31.835Z,4.27
2022-12-12T07:10:36.369Z,4.29
2022-12-12T07:11:40.454Z,4.27
2022-12-12T07:12:46.599Z,4.27
2022-12-12T07:13:50.489Z,4.28
2022-12-12T07:14:52.723Z,4.29
2022-12-12T07:15:56.743Z,4.29
2022-12-12T07:16:59.309Z,4.28
2022-12-12T07:18:01.472Z,4.29
2022-12-12T07:19:04.358Z,4.27
2022-12-12T07:20:07.814Z,4.29
2022-12-12T07:21:15.246Z,4.29
2022-12-12T07:22:17.574Z,4.29
2022-12-12T07:23:19.987Z,4.27
2022-12-12T07:24:22.142Z,4.28
2022-12-12T07:25:24.252Z,4.27
2022-12-12T07:26:26.597Z,4.26
2022-12-12T07:27:28.709Z,4.26
2022-12-12T07:28:31.096Z,4.27
2022-12-12T07:29:33.718Z,4.27
2022-12-12T07:30:38.546Z,4.28
2022-12-12T07:31:40.862Z,4.27
2022-12-12T07:32:43.019Z,4.26
2022-12-12T07:33:45.460Z,4.26
2022-12-12T07:34:47.605Z,4.24
2022-12-12T07:35:49.829Z,4.24
2022-12-12T07:36:52.026Z,4.25
2022-12-12T07:37:55.566Z,4.25
2022-12-12T07:38:57.716Z,4.25
2022-12-12T07:39:59.938Z,4.25
2022-12-12T07:41:07.271Z,4.26
2022-12-12T07:42:09.403Z,4.25
2022-12-12T07:43:11.541Z,4.25
2022-12-12T07:44:13.660Z,4.26
2022-12-12T07:45:18.425Z,4.27
2022-12-12T07:46:24.116Z,4.27
2022-12-12T07:47:26.307Z,4.26
2022-12-12T07:48:29.156Z,4.26
2022-12-12T07:49:31.325Z,4.26
2022-12-12T07:50:33.483Z,4.26
2022-12-12T07:51:36.309Z,4.27
2022-12-12T07:52:38.746Z,4.27
2022-12-12T07:53:41.530Z,4.27
2022-12-12T07:54:44.022Z,4.26
2022-12-12T07:55:46.218Z,4.27
2022-12-12T07:56:48.373Z,4.26
2022-12-12T07:57:50.621Z,4.27
2022-12-12T07:58:53.491Z,4.27
2022-12-12T07:59:56.349Z,4.27
2022-12-12T08:00:58.440Z,4.27
2022-12-12T08:02:00.641Z,4.28
2022-12-12T08:03:02.885Z,4.30
2022-12-12T08:04:05.297Z,4.31
2022-12-12T08:05:08.203Z,4.30
2022-12-12T08:06:10.884Z,4.32
2022-12-12T08:07:13.065Z,4.32
2022-12-12T08:08:15.205Z,4.34
2022-12-12T08:09:17.838Z,4.34
2022-12-12T08:10:20.191Z,4.36
2022-12-12T08:11:24.033Z,4.40
2022-12-12T08:12:29.979Z,4.40
2022-12-12T08:13:34.810Z,4.41
2022-12-12T08:14:37.528Z,4.42
2022-12-12T08:15:39.667Z,4.43
2022-12-12T08:16:42.201Z,4.45
2022-12-12T08:17:44.701Z,4.48
2022-12-12T08:18:47.105Z,4.48
2022-12-12T08:19:49.273Z,4.49
2022-12-12T08:20:51.447Z,4.50
2022-12-12T08:21:53.592Z,4.53
2022-12-12T08:22:55.714Z,4.54
2022-12-12T08:23:59.627Z,4.56
2022-12-12T08:25:01.983Z,4.57
2022-12-12T08:26:09.364Z,4.60
2022-12-12T08:27:15.467Z,4.60
2022-12-12T08:28:18.489Z,4.61
2022-12-12T08:29:20.796Z,4.62
2022-12-12T08:30:22.902Z,4.64
2022-12-12T08:31:25.919Z,4.64
2022-12-12T08:32:28.109Z,4.65
2022-12-12T08:33:30.672Z,4.66
2022-12-12T08:34:32.907Z,4.68
2022-12-12T08:35:35.071Z,4.68
2022-12-12T08:36:37.341Z,4.68
2022-12-12T08:37:39.584Z,4.70
2022-12-12T08:38:42.189Z,4.69
2022-12-12T08:39:44.360Z,4.71
2022-12-12T08:40:46.450Z,4.72
2022-12-12T08:41:50.103Z,4.72
2022-12-12T08:42:52.318Z,4.71
2022-12-12T08:43:54.528Z,4.73
2022-12-12T08:44:56.689Z,4.71
2022-12-12T08:46:03.116Z,4.72
2022-12-12T08:47:05.362Z,4.71
2022-12-12T08:48:10.246Z,4.71
2022-12-12T08:49:12.897Z,4.72
2022-12-12T08:50:15.006Z,4.72
2022-12-12T08:51:18.445Z,4.73
2022-12-12T08:52:20.717Z,4.72
2022-12-12T08:53:23.857Z,4.73
2022-12-12T08:54:26.346Z,4.75
2022-12-12T08:55:28.668Z,4.76
2022-12-12T08:56:31.048Z,4.78
2022-12-12T08:57:33.214Z,4.81
2022-12-12T08:58:35.422Z,4.82
2022-12-12T08:59:37.590Z,4.84
2022-12-12T09:00:39.785Z,4.87
2022-12-12T09:01:42.160Z,4.89
2022-12-12T09:02:44.769Z,4.91
2022-12-12T09:03:48.091Z,4.94
2022-12-12T09:04:50.239Z,4.98
2022-12-12T09:05:52.460Z,5.00
2022-12-12T09:06:54.995Z,5.03
2022-12-12T09:07:57.203Z,5.05
2022-12-12T09:08:59.532Z,5.08
2022-12-12T09:10:01.905Z,5.11
2022-12-12T09:11:04.502Z,5.13
2022-12-12T09:12:06.933Z,5.14
2022-12-12T09:13:09.434Z,5.17
2022-12-12T09:14:12.010Z,5.20
2022-12-12T09:15:14.617Z,5.23
2022-12-12T09:16:17.770Z,5.23
2022-12-12T09:17:20.076Z,5.27
2022-12-12T09:18:23.006Z,5.27
2022-12-12T09:19:25.230Z,5.31
2022-12-12T09:20:27.508Z,5.33
2022-12-12T09:21:29.637Z,5.35
2022-12-12T09:22:31.841Z,5.37
2022-12-12T09:23:34.333Z,5.38
2022-12-12T09:24:36.491Z,5.43
2022-12-12T09:25:42.539Z,5.44
2022-12-12T09:26:45.139Z,5.43
2022-12-12T09:27:47.547Z,5.46
2022-12-12T09:28:49.855Z,5.49
2022-12-12T09:29:52.038Z,5.52
2022-12-12T09:30:54.190Z,5.54
2022-12-12T09:31:56.543Z,5.56
2022-12-12T09:32:58.795Z,5.58
2022-12-12T09:34:00.928Z,5.61
2022-12-12T09:35:03.221Z,5.62
2022-12-12T09:36:07.419Z,5.64
2022-12-12T09:37:09.576Z,5.67
2022-12-12T09:38:14.598Z,5.69
2022-12-12T09:39:17.218Z,5.71
2022-12-12T09:40:32.017Z,5.73
2022-12-12T09:41:34.313Z,5.76
2022-12-12T09:42:46.042Z,5.77
2022-12-12T09:44:05.687Z,5.80
2022-12-12T09:45:08.662Z,5.81
2022-12-12T09:46:55.402Z,5.82
2022-12-12T09:48:03.150Z,5.83
2022-12-12T09:49:25.545Z,5.88
2022-12-12T09:50:34.737Z,5.87
2022-12-12T09:51:37.480Z,5.87
2022-12-12T09:52:40.526Z,5.89
2022-12-12T09:53:46.375Z,5.92
2022-12-12T09:54:48.592Z,5.93
2022-12-12T09:56:05.521Z,5.97
2022-12-12T09:57:34.482Z,5.99
2022-12-12T09:58:47.461Z,6.03
2022-12-12T10:00:03.290Z,6.05
2022-12-12T10:01:23.579Z,6.09
2022-12-12T10:02:37.568Z,6.14
2022-12-12T10:04:16.588Z,6.18
2022-12-12T10:06:13.444Z,6.21
2022-12-12T10:07:26.895Z,6.24
2022-12-12T10:08:44.376Z,6.27
2022-12-12T10:10:12.846Z,6.28
2022-12-12T10:11:40.254Z,6.27
2022-12-12T10:12:43.074Z,6.24
2022-12-12T10:13:45.341Z,6.24
2022-12-12T10:14:54.563Z,6.28
2022-12-12T10:16:12.550Z,6.29
2022-12-12T10:17:23.146Z,6.31
2022-12-12T10:18:41.195Z,6.33
2022-12-12T10:19:58.917Z,6.33
2022-12-12T10:21:06.682Z,6.38
2022-12-12T10:22:24.469Z,6.41
2022-12-12T10:23:58.761Z,6.46
2022-12-12T10:25:21.101Z,6.48
2022-12-12T10:26:30.501Z,6.50
2022-12-12T10:27:32.723Z,6.53
2022-12-12T10:28:35.987Z,6.56
2022-12-12T10:29:48.796Z,6.60
2022-12-12T10:31:00.495Z,6.66
2022-12-12T10:32:28.884Z,6.71
2022-12-12T10:33:43.208Z,6.76
2022-12-12T10:34:51.026Z,6.77
2022-12-12T10:35:59.401Z,6.80
2022-12-12T10:37:17.370Z,6.86
2022-12-12T10:38:31.031Z,6.89
2022-12-12T10:39:57.954Z,6.94
2022-12-12T10:41:28.288Z,6.98
2022-12-12T10:42:30.358Z,7.04
2022-12-12T10:43:58.769Z,7.05
2022-12-12T10:45:00.842Z,7.14
2022-12-12T10:46:10.273Z,7.19
2022-12-12T10:47:12.918Z,7.22
2022-12-12T10:48:15.155Z,7.28
2022-12-12T10:49:20.212Z,7.31
2022-12-12T10:50:32.679Z,7.35
2022-12-12T10:51:35.261Z,7.40
2022-12-12T10:52:38.000Z,7.43
2022-12-12T10:53:42.069Z,7.48
2022-12-12T10:55:10.440Z,7.51
2022-12-12T10:56:24.188Z,7.57
2022-12-12T10:57:29.498Z,7.59
2022-12-12T10:58:43.905Z,7.64
2022-12-12T10:59:49.446Z,7.68
2022-12-12T11:00:52.056Z,7.69
2022-12-12T11:02:10.166Z,7.72
2022-12-12T11:03:28.829Z,7.76
2022-12-12T11:04:32.361Z,7.80
2022-12-12T11:05:36.729Z,7.83
2022-12-12T11:06:51.996Z,7.84
2022-12-12T11:08:21.427Z,7.88
2022-12-12T11:09:28.537Z,7.88
2022-12-12T11:10:38.060Z,7.92
2022-12-12T11:11:40.198Z,7.92
2022-12-12T11:12:42.348Z,7.94
2022-12-12T11:13:49.895Z,7.97
2022-12-12T11:14:53.619Z,7.99
2022-12-12T11:16:21.083Z,8.02
2022-12-12T11:17:31.778Z,8.04
2022-12-12T11:18:34.006Z,8.03
2022-12-12T11:19:39.596Z,8.03
2022-12-12T11:20:55.924Z,8.01
2022-12-12T11:22:04.219Z,7.98
2022-12-12T11:23:07.231Z,7.95
2022-12-12T11:24:15.841Z,7.91
2022-12-12T11:25:27.437Z,7.85
2022-12-12T11:26:29.923Z,7.78
2022-12-12T11:27:41.603Z,7.73
2022-12-12T11:28:46.816Z,7.66
2022-12-12T11:30:22.874Z,7.59
2022-12-12T11:31:28.916Z,7.52
2022-12-12T11:32:41.569Z,7.44
2022-12-12T11:33:50.150Z,7.36
2022-12-12T11:34:59.809Z,7.31
2022-12-12T11:36:06.278Z,7.24
2022-12-12T11:37:16.205Z,7.17
2022-12-12T11:38:29.011Z,7.10
2022-12-12T11:39:42.369Z,7.05
2022-12-12T11:40:45.428Z,7.00
2022-12-12T11:42:15.742Z,6.94
2022-12-12T11:43:28.383Z,6.87
2022-12-12T11:44:36.956Z,6.79
2022-12-12T11:45:39.208Z,6.76
2022-12-12T11:46:41.482Z,6.73
2022-12-12T11:47:46.374Z,6.67
2022-12-12T11:48:48.484Z,6.63
2022-12-12T11:49:58.965Z,6.58
2022-12-12T11:51:02.122Z,6.56
2022-12-12T11:52:21.321Z,6.51
2022-12-12T11:53:23.454Z,6.48
2022-12-12T11:54:34.616Z,6.44
2022-12-12T11:56:04.109Z,6.42
2022-12-12T11:57:27.714Z,6.36
2022-12-12T11:59:11.068Z,6.30
2022-12-12T12:00:24.619Z,6.27
2022-12-12T12:01:53.746Z,6.24
2022-12-12T12:03:13.403Z,6.18
2022-12-12T12:04:58.845Z,6.14
2022-12-12T12:06:20.499Z,6.09
2022-12-12T12:07:28.173Z,6.06
2022-12-12T12:08:55.378Z,6.03
2022-12-12T12:10:03.522Z,5.99
2022-12-12T12:11:23.452Z,5.98
2022-12-12T12:12:29.207Z,5.94
2022-12-12T12:13:46.246Z,5.92
2022-12-12T12:15:08.672Z,5.89
2022-12-12T12:16:44.306Z,5.86
2022-12-12T12:18:27.909Z,5.82
2022-12-12T12:20:07.079Z,5.78
2022-12-12T12:21:17.763Z,5.74
2022-12-12T12:22:32.176Z,5.72
2022-12-12T12:24:10.135Z,5.68
2022-12-12T12:25:28.398Z,5.66
2022-12-12T12:26:43.211Z,5.63
2022-12-12T12:28:17.394Z,5.63
2022-12-12T12:29:43.107Z,5.59
2022-12-12T12:31:15.316Z,5.57
2022-12-12T12:33:06.753Z,5.53
2022-12-12T12:34:32.597Z,5.49
2022-12-12T12:35:45.767Z,5.46
2022-12-12T12:37:11.182Z,5.46
2022-12-12T12:38:24.929Z,5.44
2022-12-12T12:39:29.958Z,5.44
2022-12-12T12:40:38.396Z,5.42
2022-12-12T12:42:04.325Z,5.43
2022-12-12T12:43:21.444Z,5.42
2022-12-12T12:44:43.609Z,5.41
2022-12-12T12:46:03.173Z,5.39
2022-12-12T12:47:26.297Z,5.39
2022-12-12T12:48:37.314Z,5.37
2022-12-12T12:49:50.113Z,5.37
2022-12-12T12:51:01.075Z,5.38
2022-12-12T12:52:25.378Z,5.37
2022-12-12T12:53:53.358Z,5.37
2022-12-12T12:54:58.812Z,5.36
2022-12-12T12:56:08.873Z,5.35
2022-12-12T12:57:27.841Z,5.35
2022-12-12T12:58:38.358Z,5.36
2022-12-12T12:59:51.054Z,5.36
2022-12-12T13:01:04.503Z,5.36
2022-12-12T13:02:33.572Z,5.36
2022-12-12T13:03:55.970Z,5.37
2022-12-12T13:05:10.086Z,5.37
2022-12-12T13:06:23.258Z,5.39
2022-12-12T13:07:46.978Z,5.39
2022-12-12T13:08:59.141Z,5.41
2022-12-12T13:10:16.870Z,5.41
2022-12-12T13:11:33.977Z,5.42
2022-12-12T13:13:10.162Z,5.44
2022-12-12T13:14:12.244Z,5.42
2022-12-12T13:15:41.308Z,5.43
2022-12-12T13:16:45.560Z,5.43
2022-12-12T13:18:10.444Z,5.43
2022-12-12T13:19:27.991Z,5.44
2022-12-12T13:20:34.654Z,5.41
2022-12-12T13:21:48.840Z,5.42
2022-12-12T13:23:06.229Z,5.40
2022-12-12T13:24:21.395Z,5.42
2022-12-12T13:25:53.772Z,5.41
2022-12-12T13:27:13.809Z,5.39
2022-12-12T13:28:19.422Z,5.38
2022-12-12T13:29:27.134Z,5.39
2022-12-12T13:30:40.273Z,5.39
2022-12-12T13:31:54.638Z,5.39
2022-12-12T13:33:26.917Z,5.38
2022-12-12T13:34:32.338Z,5.37
2022-12-12T13:35:51.009Z,5.34
2022-12-12T13:36:56.140Z,5.33
2022-12-12T13:37:59.180Z,5.33
2022-12-12T13:39:04.218Z,5.32
2022-12-12T13:40:07.778Z,5.32
2022-12-12T13:41:10.649Z,5.32
2022-12-12T13:42:14.247Z,5.32
2022-12-12T13:43:37.732Z,5.32
2022-12-12T13:44:44.291Z,5.31
2022-12-12T13:45:46.582Z,5.30
2022-12-12T13:46:48.830Z,5.30
2022-12-12T13:47:55.235Z,5.29
2022-12-12T13:49:10.701Z,5.30
2022-12-12T13:50:13.236Z,5.29
2022-12-12T13:51:27.722Z,5.29
2022-12-12T13:52:37.337Z,5.28
2022-12-12T13:53:39.469Z,5.27
2022-12-12T13:54:46.593Z,5.27
2022-12-12T13:55:48.805Z,5.27
2022-12-12T13:56:53.779Z,5.28
2022-12-12T13:58:08.182Z,5.28
2022-12-12T13:59:22.512Z,5.29
2022-12-12T14:00:25.912Z,5.26
2022-12-12T14:01:37.611Z,5.23
2022-12-12T14:02:44.348Z,5.24
2022-12-12T14:03:47.067Z,5.26
2022-12-12T14:05:09.507Z,5.25
2022-12-12T14:06:18.474Z,5.23
2022-12-12T14:07:25.447Z,5.22
2022-12-12T14:08:36.656Z,5.21
2022-12-12T14:09:50.661Z,5.21
2022-12-12T14:11:03.397Z,5.20
2022-12-12T14:12:17.564Z,5.20
2022-12-12T14:13:22.450Z,5.17
2022-12-12T14:14:25.557Z,5.19
2022-12-12T14:15:33.985Z,5.19
2022-12-12T14:16:36.925Z,5.17
2022-12-12T14:17:42.664Z,5.20
2022-12-12T14:18:51.288Z,5.19
2022-12-12T14:19:56.713Z,5.17
2022-12-12T14:21:03.456Z,5.19
2022-12-12T14:22:05.689Z,5.16
2022-12-12T14:23:10.461Z,5.17
2022-12-12T14:24:32.837Z,5.18
2022-12-12T14:25:40.309Z,5.17
2022-12-12T14:26:42.377Z,5.16
2022-12-12T14:27:50.285Z,5.16
2022-12-12T14:29:17.098Z,5.15
2022-12-12T14:30:23.623Z,5.14
2022-12-12T14:31:34.811Z,5.12
2022-12-12T14:32:50.599Z,5.11
2022-12-12T14:34:10.162Z,5.10
2022-12-12T14:35:41.368Z,5.10
2022-12-12T14:37:00.518Z,5.09
2022-12-12T14:38:20.592Z,5.08
2022-12-12T14:39:38.661Z,5.07
2022-12-12T14:40:47.502Z,5.06
2022-12-12T14:41:50.524Z,5.06
2022-12-12T14:43:18.793Z,5.05
2022-12-12T14:44:37.893Z,5.04
2022-12-12T14:45:51.585Z,5.04
2022-12-12T14:46:53.944Z,5.04
2022-12-12T14:48:09.407Z,5.04
2022-12-12T14:49:17.783Z,5.04
2022-12-12T14:50:19.926Z,5.03
2022-12-12T14:51:29.983Z,5.03
2022-12-12T14:52:32.409Z,5.03
2022-12-12T14:53:37.496Z,5.04
2022-12-12T14:54:39.891Z,5.05
2022-12-12T14:55:57.314Z,5.04
2022-12-12T14:57:01.256Z,5.04
2022-12-12T14:58:03.467Z,5.03
2022-12-12T14:59:19.619Z,5.06
2022-12-12T15:00:21.902Z,5.06
2022-12-12T15:01:50.900Z,5.05
2022-12-12T15:02:53.709Z,5.05
2022-12-12T15:03:57.507Z,5.04
2022-12-12T15:05:05.343Z,5.04
2022-12-12T15:06:26.279Z,5.05
2022-12-12T15:07:40.763Z,5.02
2022-12-12T15:08:43.039Z,5.02
2022-12-12T15:09:49.062Z,5.03
2022-12-12T15:10:59.687Z,5.01
2022-12-12T15:12:11.068Z,5.03
2022-12-12T15:13:20.996Z,5.02
2022-12-12T15:14:26.236Z,5.02
2022-12-12T15:15:31.898Z,5.01
2022-12-12T15:16:48.762Z,5.00
2022-12-12T15:17:52.179Z,5.00
2022-12-12T15:18:56.092Z,5.00
2022-12-12T15:20:08.332Z,4.99
2022-12-12T15:21:10.509Z,4.98